sensor_id;sensor_type;location;lat;lon;timestamp;pressure;altitude;pressure_sealevel;temperature;humidity
76216;BME280;65010;50.190;18.930;2023-02-28T00:01:51;99488.25;;;2.37;40.93
76216;BME280;65010;50.190;18.930;2023-02-28T00:04:58;99491.22;;;2.45;40.86
76216;BME280;65010;50.190;18.930;2023-02-28T00:08:05;99489.53;;;2.44;39.60
76216;BME280;65010;50.190;18.930;2023-02-28T00:11:14;99483.31;;;2.33;40.13
76216;BME280;65010;50.190;18.930;2023-02-28T00:14:21;99486.41;;;2.25;40.23
76216;BME280;65010;50.190;18.930;2023-02-28T00:17:30;99493.69;;;2.18;39.99
76216;BME280;65010;50.190;18.930;2023-02-28T00:20:36;99494.94;;;2.13;40.42
76216;BME280;65010;50.190;18.930;2023-02-28T00:23:43;99492.78;;;2.05;39.47
76216;BME280;65010;50.190;18.930;2023-02-28T00:26:49;99496.56;;;1.99;40.24
76216;BME280;65010;50.190;18.930;2023-02-28T00:29:56;99495.16;;;1.94;39.89
76216;BME280;65010;50.190;18.930;2023-02-28T00:33:05;99498.13;;;1.87;40.15
76216;BME280;65010;50.190;18.930;2023-02-28T00:36:11;99501.16;;;1.80;40.82
76216;BME280;65010;50.190;18.930;2023-02-28T00:39:17;99502.19;;;1.77;40.45
76216;BME280;65010;50.190;18.930;2023-02-28T00:42:24;99505.69;;;1.76;40.64
76216;BME280;65010;50.190;18.930;2023-02-28T00:45:30;99506.34;;;1.80;40.61
76216;BME280;65010;50.190;18.930;2023-02-28T00:48:39;99504.41;;;1.83;40.73
76216;BME280;65010;50.190;18.930;2023-02-28T00:51:45;99512.84;;;1.87;40.85
76216;BME280;65010;50.190;18.930;2023-02-28T00:54:52;99499.88;;;1.87;40.67
76216;BME280;65010;50.190;18.930;2023-02-28T00:57:58;99507.84;;;1.84;40.87
76216;BME280;65010;50.190;18.930;2023-02-28T01:01:04;99507.66;;;1.87;41.45
76216;BME280;65010;50.190;18.930;2023-02-28T01:04:15;99508.78;;;1.97;41.45
76216;BME280;65010;50.190;18.930;2023-02-28T01:07:23;99512.03;;;2.01;40.78
76216;BME280;65010;50.190;18.930;2023-02-28T01:10:29;99510.44;;;1.98;40.85
76216;BME280;65010;50.190;18.930;2023-02-28T01:13:36;99505.63;;;1.92;40.50
76216;BME280;65010;50.190;18.930;2023-02-28T01:16:42;99503.69;;;1.96;41.93
76216;BME280;65010;50.190;18.930;2023-02-28T01:19:53;99501.91;;;1.96;41.09
76216;BME280;65010;50.190;18.930;2023-02-28T01:23:00;99497.75;;;1.94;41.53
76216;BME280;65010;50.190;18.930;2023-02-28T01:26:07;99505.53;;;1.94;41.29
76216;BME280;65010;50.190;18.930;2023-02-28T01:29:15;99493.31;;;1.81;40.83
76216;BME280;65010;50.190;18.930;2023-02-28T01:32:23;99495.78;;;1.68;41.32
76216;BME280;65010;50.190;18.930;2023-02-28T01:35:32;99489.28;;;1.61;41.34
76216;BME280;65010;50.190;18.930;2023-02-28T01:38:40;99488.81;;;1.55;41.96
76216;BME280;65010;50.190;18.930;2023-02-28T01:41:46;99492.22;;;1.55;42.19
76216;BME280;65010;50.190;18.930;2023-02-28T01:44:58;99478.59;;;1.52;41.79
76216;BME280;65010;50.190;18.930;2023-02-28T01:48:09;99484.13;;;1.45;42.30
76216;BME280;65010;50.190;18.930;2023-02-28T01:51:22;99482.47;;;1.44;42.38
76216;BME280;65010;50.190;18.930;2023-02-28T01:54:35;99477.72;;;1.37;42.47
76216;BME280;65010;50.190;18.930;2023-02-28T01:57:46;99484.56;;;1.38;42.43
76216;BME280;65010;50.190;18.930;2023-02-28T02:00:55;99491.78;;;1.33;42.02
76216;BME280;65010;50.190;18.930;2023-02-28T02:04:04;99489.84;;;1.36;42.57
76216;BME280;65010;50.190;18.930;2023-02-28T02:07:13;99492.94;;;1.43;42.53
76216;BME280;65010;50.190;18.930;2023-02-28T02:10:25;99485.31;;;1.40;42.33
76216;BME280;65010;50.190;18.930;2023-02-28T02:14:06;99485.16;;;1.43;42.90
76216;BME280;65010;50.190;18.930;2023-02-28T02:17:29;99480.88;;;1.42;43.14
76216;BME280;65010;50.190;18.930;2023-02-28T02:24:51;99478.03;;;1.46;43.08
76216;BME280;65010;50.190;18.930;2023-02-28T02:28:40;99480.53;;;1.48;43.23
76216;BME280;65010;50.190;18.930;2023-02-28T02:36:00;99480.53;;;1.48;44.04
76216;BME280;65010;50.190;18.930;2023-02-28T02:39:16;99473.34;;;1.53;44.19
76216;BME280;65010;50.190;18.930;2023-02-28T02:42:39;99484.53;;;1.54;43.50
76216;BME280;65010;50.190;18.930;2023-02-28T02:45:55;99477.47;;;1.41;43.11
76216;BME280;65010;50.190;18.930;2023-02-28T02:49:12;99477.22;;;1.30;43.64
76216;BME280;65010;50.190;18.930;2023-02-28T02:52:34;99472.44;;;1.08;43.32
76216;BME280;65010;50.190;18.930;2023-02-28T02:55:50;99478.81;;;1.02;44.48
76216;BME280;65010;50.190;18.930;2023-02-28T02:59:03;99482.13;;;1.04;44.63
76216;BME280;65010;50.190;18.930;2023-02-28T03:02:16;99484.31;;;0.96;44.28
76216;BME280;65010;50.190;18.930;2023-02-28T03:05:27;99491.22;;;0.96;45.03
76216;BME280;65010;50.190;18.930;2023-02-28T03:08:41;99490.88;;;1.02;45.31
76216;BME280;65010;50.190;18.930;2023-02-28T03:11:48;99489.03;;;1.04;45.17
76216;BME280;65010;50.190;18.930;2023-02-28T03:15:08;99487.13;;;1.07;44.60
76216;BME280;65010;50.190;18.930;2023-02-28T03:18:34;99483.22;;;1.00;45.04
76216;BME280;65010;50.190;18.930;2023-02-28T03:21:58;99501.16;;;1.03;44.88
76216;BME280;65010;50.190;18.930;2023-02-28T03:25:27;99490.13;;;1.00;45.32
76216;BME280;65010;50.190;18.930;2023-02-28T03:28:47;99492.09;;;0.96;44.80
76216;BME280;65010;50.190;18.930;2023-02-28T03:32:05;99485.56;;;0.89;45.65
76216;BME280;65010;50.190;18.930;2023-02-28T03:35:28;99490.75;;;0.89;45.61
76216;BME280;65010;50.190;18.930;2023-02-28T03:38:41;99495.91;;;0.89;45.94
76216;BME280;65010;50.190;18.930;2023-02-28T03:41:59;99494.41;;;0.85;45.83
76216;BME280;65010;50.190;18.930;2023-02-28T03:45:13;99493.84;;;0.80;46.31
76216;BME280;65010;50.190;18.930;2023-02-28T03:48:27;99502.59;;;0.77;46.16
76216;BME280;65010;50.190;18.930;2023-02-28T03:51:42;99505.50;;;0.71;46.18
76216;BME280;65010;50.190;18.930;2023-02-28T03:54:58;99504.06;;;0.65;46.71
76216;BME280;65010;50.190;18.930;2023-02-28T03:58:19;99508.41;;;0.65;47.07
76216;BME280;65010;50.190;18.930;2023-02-28T04:01:35;99514.53;;;0.64;47.10
76216;BME280;65010;50.190;18.930;2023-02-28T04:04:45;99512.91;;;0.61;47.18
76216;BME280;65010;50.190;18.930;2023-02-28T04:07:52;99507.84;;;0.60;47.49
76216;BME280;65010;50.190;18.930;2023-02-28T04:11:03;99512.50;;;0.53;47.31
76216;BME280;65010;50.190;18.930;2023-02-28T04:14:22;99517.09;;;0.48;47.55
76216;BME280;65010;50.190;18.930;2023-02-28T04:17:28;99516.41;;;0.44;47.78
76216;BME280;65010;50.190;18.930;2023-02-28T04:20:35;99521.72;;;0.41;47.82
76216;BME280;65010;50.190;18.930;2023-02-28T04:23:41;99516.06;;;0.35;48.21
76216;BME280;65010;50.190;18.930;2023-02-28T04:26:50;99525.50;;;0.36;48.56
76216;BME280;65010;50.190;18.930;2023-02-28T04:29:59;99535.09;;;0.34;48.22
76216;BME280;65010;50.190;18.930;2023-02-28T04:33:06;99532.81;;;0.27;48.50
76216;BME280;65010;50.190;18.930;2023-02-28T04:36:12;99536.44;;;0.23;48.66
76216;BME280;65010;50.190;18.930;2023-02-28T04:39:21;99543.56;;;0.20;48.64
76216;BME280;65010;50.190;18.930;2023-02-28T04:42:28;99542.09;;;0.14;48.79
76216;BME280;65010;50.190;18.930;2023-02-28T04:45:41;99541.28;;;0.14;49.03
76216;BME280;65010;50.190;18.930;2023-02-28T04:48:47;99532.16;;;0.06;49.18
76216;BME280;65010;50.190;18.930;2023-02-28T04:51:53;99537.56;;;0.02;49.21
76216;BME280;65010;50.190;18.930;2023-02-28T04:54:59;99537.69;;;-0.01;49.43
76216;BME280;65010;50.190;18.930;2023-02-28T04:58:06;99537.78;;;-0.03;49.54
76216;BME280;65010;50.190;18.930;2023-02-28T05:01:23;99533.47;;;-0.02;49.14
76216;BME280;65010;50.190;18.930;2023-02-28T05:04:32;99527.69;;;-0.07;49.74
76216;BME280;65010;50.190;18.930;2023-02-28T05:07:39;99531.94;;;-0.06;49.57
76216;BME280;65010;50.190;18.930;2023-02-28T05:10:45;99531.09;;;-0.07;49.71
76216;BME280;65010;50.190;18.930;2023-02-28T05:13:52;99535.59;;;-0.11;49.67
76216;BME280;65010;50.190;18.930;2023-02-28T05:17:02;99527.84;;;-0.11;49.74
76216;BME280;65010;50.190;18.930;2023-02-28T05:20:10;99543.72;;;-0.18;49.91
76216;BME280;65010;50.190;18.930;2023-02-28T05:23:22;99514.38;;;-0.52;49.81
76216;BME280;65010;50.190;18.930;2023-02-28T05:26:30;99543.16;;;-0.60;50.23
76216;BME280;65010;50.190;18.930;2023-02-28T05:29:40;99552.66;;;-0.79;50.99
76216;BME280;65010;50.190;18.930;2023-02-28T05:32:50;99551.59;;;-0.93;51.69
76216;BME280;65010;50.190;18.930;2023-02-28T05:35:57;99549.22;;;-0.97;53.01
76216;BME280;65010;50.190;18.930;2023-02-28T05:39:05;99549.56;;;-1.05;52.24
76216;BME280;65010;50.190;18.930;2023-02-28T05:42:15;99559.69;;;-1.00;52.38
76216;BME280;65010;50.190;18.930;2023-02-28T05:45:21;99565.00;;;-1.03;52.19
76216;BME280;65010;50.190;18.930;2023-02-28T05:48:30;99557.88;;;-0.98;52.58
76216;BME280;65010;50.190;18.930;2023-02-28T05:51:37;99565.00;;;-1.03;52.51
76216;BME280;65010;50.190;18.930;2023-02-28T05:54:43;99567.91;;;-1.11;53.04
76216;BME280;65010;50.190;18.930;2023-02-28T05:57:51;99559.53;;;-1.16;53.16
76216;BME280;65010;50.190;18.930;2023-02-28T06:00:58;99568.88;;;-1.14;53.25
76216;BME280;65010;50.190;18.930;2023-02-28T06:04:09;99575.44;;;-1.06;53.42
76216;BME280;65010;50.190;18.930;2023-02-28T06:07:33;99575.22;;;-1.02;53.29
76216;BME280;65010;50.190;18.930;2023-02-28T06:10:39;99587.16;;;-0.99;53.39
76216;BME280;65010;50.190;18.930;2023-02-28T06:13:46;99583.66;;;-0.98;53.57
76216;BME280;65010;50.190;18.930;2023-02-28T06:16:52;99594.81;;;-0.98;53.59
76216;BME280;65010;50.190;18.930;2023-02-28T06:20:05;99585.06;;;-0.91;53.65
76216;BME280;65010;50.190;18.930;2023-02-28T06:23:12;99591.03;;;-0.72;53.82
76216;BME280;65010;50.190;18.930;2023-02-28T06:26:19;99595.06;;;-0.47;53.15
76216;BME280;65010;50.190;18.930;2023-02-28T06:29:25;99597.25;;;-0.39;53.08
76216;BME280;65010;50.190;18.930;2023-02-28T06:32:32;99608.22;;;-0.34;52.44
76216;BME280;65010;50.190;18.930;2023-02-28T06:35:43;99601.00;;;-0.27;52.90
76216;BME280;65010;50.190;18.930;2023-02-28T06:38:50;99601.50;;;0.16;52.44
76216;BME280;65010;50.190;18.930;2023-02-28T06:41:57;99601.81;;;0.60;51.55
76216;BME280;65010;50.190;18.930;2023-02-28T06:45:05;99598.38;;;1.09;50.31
76216;BME280;65010;50.190;18.930;2023-02-28T06:48:12;99595.25;;;1.66;49.02
76216;BME280;65010;50.190;18.930;2023-02-28T06:51:21;99591.13;;;2.08;47.40
76216;BME280;65010;50.190;18.930;2023-02-28T06:54:27;99603.63;;;2.46;47.52
76216;BME280;65010;50.190;18.930;2023-02-28T06:57:35;99603.44;;;2.92;46.11
76216;BME280;65010;50.190;18.930;2023-02-28T07:00:41;99595.13;;;3.28;45.64
76216;BME280;65010;50.190;18.930;2023-02-28T07:03:48;99605.41;;;3.57;44.77
76216;BME280;65010;50.190;18.930;2023-02-28T07:06:58;99604.22;;;3.90;43.60
76216;BME280;65010;50.190;18.930;2023-02-28T07:10:05;99612.91;;;4.16;42.79
76216;BME280;65010;50.190;18.930;2023-02-28T07:13:11;99614.28;;;4.35;42.97
76216;BME280;65010;50.190;18.930;2023-02-28T07:16:18;99616.06;;;4.60;41.49
76216;BME280;65010;50.190;18.930;2023-02-28T07:19:24;99616.78;;;4.62;41.59
76216;BME280;65010;50.190;18.930;2023-02-28T07:22:33;99612.84;;;4.43;41.32
76216;BME280;65010;50.190;18.930;2023-02-28T07:25:39;99624.28;;;4.28;41.30
76216;BME280;65010;50.190;18.930;2023-02-28T07:28:48;99633.75;;;4.16;41.25
76216;BME280;65010;50.190;18.930;2023-02-28T07:31:54;99620.06;;;4.00;41.62
76216;BME280;65010;50.190;18.930;2023-02-28T07:35:02;99617.16;;;3.77;41.77
76216;BME280;65010;50.190;18.930;2023-02-28T07:38:11;99617.84;;;3.66;41.57
76216;BME280;65010;50.190;18.930;2023-02-28T07:41:20;99615.88;;;3.70;41.75
76216;BME280;65010;50.190;18.930;2023-02-28T07:44:30;99620.34;;;3.68;41.67
76216;BME280;65010;50.190;18.930;2023-02-28T07:47:37;99619.41;;;3.69;41.45
76216;BME280;65010;50.190;18.930;2023-02-28T07:50:43;99618.16;;;3.89;41.19
76216;BME280;65010;50.190;18.930;2023-02-28T07:54:01;99625.06;;;4.16;40.83
76216;BME280;65010;50.190;18.930;2023-02-28T07:57:07;99622.00;;;4.49;40.32
76216;BME280;65010;50.190;18.930;2023-02-28T08:00:14;99622.84;;;4.49;39.12
76216;BME280;65010;50.190;18.930;2023-02-28T08:03:22;99624.28;;;4.41;39.83
76216;BME280;65010;50.190;18.930;2023-02-28T08:06:29;99625.03;;;4.56;39.34
76216;BME280;65010;50.190;18.930;2023-02-28T08:09:38;99623.16;;;4.70;38.85
76216;BME280;65010;50.190;18.930;2023-02-28T08:12:45;99612.72;;;4.83;38.68
76216;BME280;65010;50.190;18.930;2023-02-28T08:15:51;99623.84;;;4.98;38.38
76216;BME280;65010;50.190;18.930;2023-02-28T08:18:58;99625.91;;;5.06;38.60
76216;BME280;65010;50.190;18.930;2023-02-28T08:22:04;99629.47;;;5.05;38.44
76216;BME280;65010;50.190;18.930;2023-02-28T08:25:13;99631.56;;;5.00;38.23
76216;BME280;65010;50.190;18.930;2023-02-28T08:28:19;99626.47;;;4.85;38.14
76216;BME280;65010;50.190;18.930;2023-02-28T08:31:29;99624.91;;;4.83;38.22
76216;BME280;65010;50.190;18.930;2023-02-28T08:34:35;99623.78;;;4.74;38.35
76216;BME280;65010;50.190;18.930;2023-02-28T08:37:44;99628.88;;;4.76;38.18
76216;BME280;65010;50.190;18.930;2023-02-28T08:41:01;99628.03;;;4.75;37.88
76216;BME280;65010;50.190;18.930;2023-02-28T08:44:12;99623.16;;;4.45;36.34
76216;BME280;65010;50.190;18.930;2023-02-28T08:47:18;99634.47;;;4.18;37.98
76216;BME280;65010;50.190;18.930;2023-02-28T08:50:25;99623.56;;;4.26;37.89
76216;BME280;65010;50.190;18.930;2023-02-28T08:53:31;99627.91;;;4.25;37.61
76216;BME280;65010;50.190;18.930;2023-02-28T08:56:40;99628.53;;;4.29;36.61
76216;BME280;65010;50.190;18.930;2023-02-28T08:59:46;99633.94;;;4.13;36.65
76216;BME280;65010;50.190;18.930;2023-02-28T09:02:54;99638.81;;;4.05;37.11
76216;BME280;65010;50.190;18.930;2023-02-28T09:06:01;99632.78;;;4.04;36.00
76216;BME280;65010;50.190;18.930;2023-02-28T09:09:07;99637.88;;;4.06;36.42
76216;BME280;65010;50.190;18.930;2023-02-28T09:12:16;99636.75;;;4.10;36.28
76216;BME280;65010;50.190;18.930;2023-02-28T09:15:22;99639.84;;;4.15;35.55
76216;BME280;65010;50.190;18.930;2023-02-28T09:18:29;99634.56;;;4.17;35.07
76216;BME280;65010;50.190;18.930;2023-02-28T09:21:36;99631.25;;;4.27;35.75
76216;BME280;65010;50.190;18.930;2023-02-28T09:24:43;99628.97;;;4.36;36.41
76216;BME280;65010;50.190;18.930;2023-02-28T09:27:53;99632.50;;;4.35;35.21
76216;BME280;65010;50.190;18.930;2023-02-28T09:31:03;99628.25;;;4.59;36.27
76216;BME280;65010;50.190;18.930;2023-02-28T09:34:10;99631.78;;;4.84;35.08
76216;BME280;65010;50.190;18.930;2023-02-28T09:37:16;99624.66;;;5.12;34.98
76216;BME280;65010;50.190;18.930;2023-02-28T09:40:28;99623.06;;;5.35;34.97
76216;BME280;65010;50.190;18.930;2023-02-28T09:43:44;99621.84;;;5.52;34.56
76216;BME280;65010;50.190;18.930;2023-02-28T09:46:57;99623.28;;;5.80;34.75
76216;BME280;65010;50.190;18.930;2023-02-28T09:50:19;99630.19;;;6.16;33.58
76216;BME280;65010;50.190;18.930;2023-02-28T09:53:37;99627.94;;;6.58;33.50
76216;BME280;65010;50.190;18.930;2023-02-28T09:56:51;99631.88;;;7.09;32.83
76216;BME280;65010;50.190;18.930;2023-02-28T10:00:16;99627.13;;;8.01;32.20
76216;BME280;65010;50.190;18.930;2023-02-28T10:03:32;99621.59;;;9.09;28.69
76216;BME280;65010;50.190;18.930;2023-02-28T10:06:48;99620.38;;;10.13;28.66
76216;BME280;65010;50.190;18.930;2023-02-28T10:09:59;99616.84;;;11.26;27.04
76216;BME280;65010;50.190;18.930;2023-02-28T10:13:22;99614.94;;;12.18;26.09
76216;BME280;65010;50.190;18.930;2023-02-28T10:16:38;99613.78;;;12.91;25.00
76216;BME280;65010;50.190;18.930;2023-02-28T10:19:59;99607.75;;;13.57;22.86
76216;BME280;65010;50.190;18.930;2023-02-28T10:23:17;99602.22;;;14.26;22.87
76216;BME280;65010;50.190;18.930;2023-02-28T10:26:30;99597.34;;;14.62;22.59
76216;BME280;65010;50.190;18.930;2023-02-28T10:29:44;99601.41;;;14.98;22.86
76216;BME280;65010;50.190;18.930;2023-02-28T10:32:57;99598.44;;;14.93;20.28
76216;BME280;65010;50.190;18.930;2023-02-28T10:36:04;99597.50;;;14.69;20.12
76216;BME280;65010;50.190;18.930;2023-02-28T10:39:35;99586.63;;;14.72;21.08
76216;BME280;65010;50.190;18.930;2023-02-28T10:42:55;99592.56;;;15.14;21.91
76216;BME280;65010;50.190;18.930;2023-02-28T10:46:15;99598.69;;;15.45;21.56
76216;BME280;65010;50.190;18.930;2023-02-28T10:49:31;99581.69;;;15.63;21.10
76216;BME280;65010;50.190;18.930;2023-02-28T10:52:55;99578.44;;;16.22;21.11
76216;BME280;65010;50.190;18.930;2023-02-28T10:56:29;99577.34;;;16.61;19.19
76216;BME280;65010;50.190;18.930;2023-02-28T10:59:37;99569.06;;;16.79;18.48
76216;BME280;65010;50.190;18.930;2023-02-28T11:02:43;99582.06;;;16.89;19.71
76216;BME280;65010;50.190;18.930;2023-02-28T11:05:55;99581.16;;;17.33;19.52
76216;BME280;65010;50.190;18.930;2023-02-28T11:09:06;99576.66;;;17.33;18.70
76216;BME280;65010;50.190;18.930;2023-02-28T11:12:29;99566.69;;;17.57;18.97
76216;BME280;65010;50.190;18.930;2023-02-28T11:15:57;99564.19;;;17.92;18.74
76216;BME280;65010;50.190;18.930;2023-02-28T11:19:20;99564.84;;;17.57;17.66
76216;BME280;65010;50.190;18.930;2023-02-28T11:22:43;99556.91;;;17.21;18.40
76216;BME280;65010;50.190;18.930;2023-02-28T11:25:58;99553.19;;;17.37;18.97
76216;BME280;65010;50.190;18.930;2023-02-28T11:29:19;99555.16;;;17.28;18.49
76216;BME280;65010;50.190;18.930;2023-02-28T11:32:30;99546.69;;;17.18;18.40
76216;BME280;65010;50.190;18.930;2023-02-28T11:35:40;99539.81;;;17.09;18.98
76216;BME280;65010;50.190;18.930;2023-02-28T11:38:50;99544.34;;;17.66;19.09
76216;BME280;65010;50.190;18.930;2023-02-28T11:42:19;99528.47;;;17.58;17.31
76216;BME280;65010;50.190;18.930;2023-02-28T11:46:06;99532.31;;;17.70;18.49
76216;BME280;65010;50.190;18.930;2023-02-28T11:49:32;99522.56;;;17.84;18.61
76216;BME280;65010;50.190;18.930;2023-02-28T11:52:49;99515.13;;;17.73;18.65
76216;BME280;65010;50.190;18.930;2023-02-28T11:56:08;99517.19;;;17.56;19.03
76216;BME280;65010;50.190;18.930;2023-02-28T11:59:43;99511.75;;;17.85;18.08
76216;BME280;65010;50.190;18.930;2023-02-28T12:03:11;99503.75;;;18.07;18.74
76216;BME280;65010;50.190;18.930;2023-02-28T12:06:38;99502.97;;;18.13;18.70
76216;BME280;65010;50.190;18.930;2023-02-28T12:09:59;99507.41;;;18.06;17.69
76216;BME280;65010;50.190;18.930;2023-02-28T12:13:26;99508.97;;;17.51;18.89
76216;BME280;65010;50.190;18.930;2023-02-28T12:16:56;99509.38;;;17.69;18.92
76216;BME280;65010;50.190;18.930;2023-02-28T12:20:19;99507.16;;;17.73;18.91
76216;BME280;65010;50.190;18.930;2023-02-28T12:23:57;99500.97;;;17.94;18.72
76216;BME280;65010;50.190;18.930;2023-02-28T12:27:29;99501.59;;;18.24;18.85
76216;BME280;65010;50.190;18.930;2023-02-28T12:30:52;99513.28;;;18.58;17.55
76216;BME280;65010;50.190;18.930;2023-02-28T12:34:10;99507.94;;;18.58;18.30
76216;BME280;65010;50.190;18.930;2023-02-28T12:37:24;99505.13;;;18.66;18.35
76216;BME280;65010;50.190;18.930;2023-02-28T12:40:44;99498.75;;;18.60;17.60
76216;BME280;65010;50.190;18.930;2023-02-28T12:44:01;99503.53;;;18.37;18.01
76216;BME280;65010;50.190;18.930;2023-02-28T12:47:17;99490.84;;;18.39;18.12
76216;BME280;65010;50.190;18.930;2023-02-28T12:50:26;99490.28;;;18.50;17.81
76216;BME280;65010;50.190;18.930;2023-02-28T12:53:50;99491.28;;;18.42;18.14
76216;BME280;65010;50.190;18.930;2023-02-28T12:57:11;99485.06;;;18.29;18.20
76216;BME280;65010;50.190;18.930;2023-02-28T13:00:25;99479.34;;;18.73;18.28
76216;BME280;65010;50.190;18.930;2023-02-28T13:03:59;99491.66;;;18.39;18.54
76216;BME280;65010;50.190;18.930;2023-02-28T13:08:04;99498.16;;;17.52;18.28
76216;BME280;65010;50.190;18.930;2023-02-28T13:11:39;99496.38;;;16.50;19.28
76216;BME280;65010;50.190;18.930;2023-02-28T13:14:49;99504.56;;;15.73;20.77
76216;BME280;65010;50.190;18.930;2023-02-28T13:17:58;99499.66;;;15.00;21.51
76216;BME280;65010;50.190;18.930;2023-02-28T13:21:21;99485.28;;;14.47;21.87
76216;BME280;65010;50.190;18.930;2023-02-28T13:24:47;99470.25;;;13.75;23.34
76216;BME280;65010;50.190;18.930;2023-02-28T13:27:57;99492.31;;;13.17;22.82
76216;BME280;65010;50.190;18.930;2023-02-28T13:31:06;99489.22;;;12.71;24.36
76216;BME280;65010;50.190;18.930;2023-02-28T13:34:15;99489.41;;;12.43;24.84
76216;BME280;65010;50.190;18.930;2023-02-28T13:37:42;99481.78;;;12.32;24.32
76216;BME280;65010;50.190;18.930;2023-02-28T13:40:53;99487.97;;;12.22;24.63
76216;BME280;65010;50.190;18.930;2023-02-28T13:44:02;99479.97;;;12.06;24.24
76216;BME280;65010;50.190;18.930;2023-02-28T13:47:28;99496.41;;;12.26;24.71
76216;BME280;65010;50.190;18.930;2023-02-28T13:50:39;99483.22;;;12.52;24.78
76216;BME280;65010;50.190;18.930;2023-02-28T13:54:09;99478.09;;;12.93;23.73
76216;BME280;65010;50.190;18.930;2023-02-28T13:57:40;99466.75;;;13.25;23.14
76216;BME280;65010;50.190;18.930;2023-02-28T14:01:11;99469.38;;;13.99;23.39
76216;BME280;65010;50.190;18.930;2023-02-28T14:04:46;99459.28;;;14.59;23.34
76216;BME280;65010;50.190;18.930;2023-02-28T14:08:07;99454.66;;;14.92;22.31
76216;BME280;65010;50.190;18.930;2023-02-28T14:11:31;99458.44;;;14.98;21.66
76216;BME280;65010;50.190;18.930;2023-02-28T14:14:56;99450.66;;;14.96;21.35
76216;BME280;65010;50.190;18.930;2023-02-28T14:18:11;99441.19;;;15.02;20.90
76216;BME280;65010;50.190;18.930;2023-02-28T14:21:31;99447.38;;;14.94;21.30
76216;BME280;65010;50.190;18.930;2023-02-28T14:25:07;99446.06;;;14.59;21.51
76216;BME280;65010;50.190;18.930;2023-02-28T14:28:40;99436.47;;;14.18;22.46
76216;BME280;65010;50.190;18.930;2023-02-28T14:32:02;99444.63;;;13.92;22.73
76216;BME280;65010;50.190;18.930;2023-02-28T14:38:59;99439.84;;;13.14;22.77
76216;BME280;65010;50.190;18.930;2023-02-28T14:42:29;99450.31;;;12.73;24.01
76216;BME280;65010;50.190;18.930;2023-02-28T14:45:40;99444.91;;;12.40;23.38
76216;BME280;65010;50.190;18.930;2023-02-28T14:48:48;99445.53;;;11.99;24.10
76216;BME280;65010;50.190;18.930;2023-02-28T14:52:06;99442.16;;;11.63;24.26
76216;BME280;65010;50.190;18.930;2023-02-28T14:55:24;99425.88;;;11.41;24.56
76216;BME280;65010;50.190;18.930;2023-02-28T14:58:33;99437.28;;;11.50;25.19
76216;BME280;65010;50.190;18.930;2023-02-28T15:01:43;99442.19;;;11.45;25.33
76216;BME280;65010;50.190;18.930;2023-02-28T15:04:57;99438.00;;;11.34;25.32
76216;BME280;65010;50.190;18.930;2023-02-28T15:08:11;99448.50;;;11.16;25.38
76216;BME280;65010;50.190;18.930;2023-02-28T15:11:20;99449.00;;;11.02;26.26
76216;BME280;65010;50.190;18.930;2023-02-28T15:14:27;99453.47;;;10.74;26.20
76216;BME280;65010;50.190;18.930;2023-02-28T15:17:45;99451.25;;;10.51;26.35
76216;BME280;65010;50.190;18.930;2023-02-28T15:21:02;99448.66;;;10.14;27.16
76216;BME280;65010;50.190;18.930;2023-02-28T15:24:20;99445.25;;;10.03;28.09
76216;BME280;65010;50.190;18.930;2023-02-28T15:27:44;99444.50;;;10.11;28.46
76216;BME280;65010;50.190;18.930;2023-02-28T15:31:00;99432.00;;;10.23;28.25
76216;BME280;65010;50.190;18.930;2023-02-28T15:34:36;99431.09;;;10.14;28.48
76216;BME280;65010;50.190;18.930;2023-02-28T15:37:48;99439.69;;;10.06;27.89
76216;BME280;65010;50.190;18.930;2023-02-28T15:41:00;99447.09;;;9.64;27.93
76216;BME280;65010;50.190;18.930;2023-02-28T15:44:15;99449.59;;;9.26;28.66
76216;BME280;65010;50.190;18.930;2023-02-28T15:47:33;99451.19;;;8.69;28.92
76216;BME280;65010;50.190;18.930;2023-02-28T15:50:43;99451.22;;;8.38;29.47
76216;BME280;65010;50.190;18.930;2023-02-28T15:53:57;99449.03;;;8.13;29.83
76216;BME280;65010;50.190;18.930;2023-02-28T15:57:15;99449.78;;;7.73;30.69
76216;BME280;65010;50.190;18.930;2023-02-28T16:00:28;99451.31;;;7.54;30.80
76216;BME280;65010;50.190;18.930;2023-02-28T16:03:41;99452.06;;;7.45;31.75
76216;BME280;65010;50.190;18.930;2023-02-28T16:07:11;99451.47;;;7.41;31.50
76216;BME280;65010;50.190;18.930;2023-02-28T16:10:26;99454.88;;;7.32;31.59
76216;BME280;65010;50.190;18.930;2023-02-28T16:13:38;99455.72;;;7.21;31.72
76216;BME280;65010;50.190;18.930;2023-02-28T16:16:46;99454.19;;;7.19;31.95
76216;BME280;65010;50.190;18.930;2023-02-28T16:19:55;99457.63;;;7.19;32.23
76216;BME280;65010;50.190;18.930;2023-02-28T16:23:05;99447.38;;;6.95;32.71
76216;BME280;65010;50.190;18.930;2023-02-28T16:26:19;99460.09;;;7.00;33.14
76216;BME280;65010;50.190;18.930;2023-02-28T16:29:33;99467.06;;;7.10;34.52
76216;BME280;65010;50.190;18.930;2023-02-28T16:32:42;99469.44;;;7.14;34.08
76216;BME280;65010;50.190;18.930;2023-02-28T16:35:49;99462.72;;;7.00;34.48
76216;BME280;65010;50.190;18.930;2023-02-28T16:38:58;99474.00;;;6.89;33.56
76216;BME280;65010;50.190;18.930;2023-02-28T16:42:05;99473.94;;;6.68;33.63
76216;BME280;65010;50.190;18.930;2023-02-28T16:45:16;99474.91;;;6.44;34.44
76216;BME280;65010;50.190;18.930;2023-02-28T16:48:25;99480.56;;;6.27;34.52
76216;BME280;65010;50.190;18.930;2023-02-28T16:51:32;99485.19;;;6.12;34.43
76216;BME280;65010;50.190;18.930;2023-02-28T16:54:41;99482.66;;;5.88;34.81
76216;BME280;65010;50.190;18.930;2023-02-28T16:57:52;99492.69;;;5.59;34.70
76216;BME280;65010;50.190;18.930;2023-02-28T17:01:04;99492.00;;;5.33;34.81
76216;BME280;65010;50.190;18.930;2023-02-28T17:04:11;99495.97;;;5.25;35.28
76216;BME280;65010;50.190;18.930;2023-02-28T17:07:18;99495.69;;;5.17;36.05
76216;BME280;65010;50.190;18.930;2023-02-28T17:10:28;99501.03;;;5.16;35.56